createdAt,value
2022-10-29T00:01:27.143Z,64.60
2022-10-29T00:03:54.088Z,64.60
2022-10-29T00:06:23.174Z,64.70
2022-10-29T00:08:49.964Z,64.80
2022-10-29T00:11:26.038Z,64.70
2022-10-29T00:14:01.408Z,65.00
2022-10-29T00:16:36.609Z,64.90
2022-10-29T00:19:07.399Z,64.80
2022-10-29T00:21:37.920Z,64.90
2022-10-29T00:24:05.422Z,64.90
2022-10-29T00:26:32.416Z,64.80
2022-10-29T00:28:59.470Z,64.90
2022-10-29T00:31:26.491Z,64.90
2022-10-29T00:33:55.732Z,64.90
2022-10-29T00:36:29.062Z,64.90
2022-10-29T00:38:58.902Z,65.00
2022-10-29T00:41:32.376Z,65.00
2022-10-29T00:44:20.437Z,65.20
2022-10-29T00:47:10.475Z,65.50
2022-10-29T00:49:41.262Z,65.20
2022-10-29T00:52:14.654Z,65.20
2022-10-29T00:54:46.189Z,65.20
2022-10-29T00:57:29.572Z,65.30
2022-10-29T00:59:58.961Z,65.40
2022-10-29T01:02:33.327Z,65.20
2022-10-29T01:05:05.294Z,65.40
2022-10-29T01:07:44.859Z,65.40
2022-10-29T01:10:13.990Z,65.40
2022-10-29T01:13:20.121Z,65.40
2022-10-29T01:16:37.798Z,65.90
2022-10-29T01:20:06.554Z,65.70
2022-10-29T01:22:58.785Z,66.00
2022-10-29T01:26:11.986Z,65.60
2022-10-29T01:29:03.982Z,65.90
2022-10-29T01:31:53.221Z,65.90
2022-10-29T01:34:45.585Z,65.90
2022-10-29T01:37:39.650Z,66.00
2022-10-29T01:40:47.836Z,66.10
2022-10-29T01:43:28.389Z,66.00
2022-10-29T01:46:46.398Z,65.80
2022-10-29T01:49:22.816Z,66.20
2022-10-29T01:52:01.636Z,65.80
2022-10-29T01:54:30.771Z,65.80
2022-10-29T01:57:00.431Z,65.90
2022-10-29T01:59:51.327Z,65.90
2022-10-29T02:03:00.789Z,66.00
2022-10-29T02:05:55.097Z,66.40
2022-10-29T02:09:01.403Z,66.40
2022-10-29T02:12:13.937Z,66.60
2022-10-29T02:14:57.951Z,66.50
2022-10-29T02:17:25.267Z,66.20
2022-10-29T02:19:52.109Z,66.10
2022-10-29T02:22:18.918Z,66.20
2022-10-29T02:24:45.862Z,66.20
2022-10-29T02:27:17.375Z,66.30
2022-10-29T02:29:44.242Z,66.30
2022-10-29T02:32:15.599Z,66.40
2022-10-29T02:34:47.026Z,66.50
2022-10-29T02:37:18.463Z,66.50
2022-10-29T02:39:45.372Z,66.60
2022-10-29T02:42:12.324Z,66.50
2022-10-29T02:44:43.630Z,66.60
2022-10-29T02:47:10.451Z,66.60
2022-10-29T02:49:39.683Z,66.60
2022-10-29T02:52:08.945Z,66.60
2022-10-29T02:54:39.131Z,66.70
2022-10-29T02:57:08.706Z,66.80
2022-10-29T02:59:35.622Z,66.90
2022-10-29T03:02:05.202Z,66.80
2022-10-29T03:04:32.313Z,66.80
2022-10-29T03:07:06.598Z,66.90
2022-10-29T03:09:40.350Z,66.90
2022-10-29T03:12:13.868Z,67.00
2022-10-29T03:14:40.918Z,66.90
2022-10-29T03:17:10.284Z,66.90
2022-10-29T03:19:44.247Z,67.00
2022-10-29T03:22:13.448Z,67.00
2022-10-29T03:24:45.007Z,67.00
2022-10-29T03:27:14.325Z,67.20
2022-10-29T03:29:45.744Z,67.10
2022-10-29T03:32:17.221Z,67.20
2022-10-29T03:34:48.569Z,67.10
2022-10-29T03:37:15.375Z,67.10
2022-10-29T03:39:42.157Z,67.20
2022-10-29T03:42:09.114Z,67.20
2022-10-29T03:44:38.430Z,67.20
2022-10-29T03:47:08.126Z,67.20
2022-10-29T03:49:34.974Z,67.30
2022-10-29T03:52:04.309Z,67.20
2022-10-29T03:54:37.833Z,67.20
2022-10-29T03:57:06.677Z,67.30
2022-10-29T03:59:35.917Z,67.40
2022-10-29T04:02:02.785Z,67.40
2022-10-29T04:04:29.776Z,67.40
2022-10-29T04:06:59.509Z,67.40
2022-10-29T04:09:26.356Z,67.50
2022-10-29T04:11:55.491Z,67.60
2022-10-29T04:14:22.275Z,67.60
2022-10-29T04:16:53.743Z,67.60
2022-10-29T04:19:22.680Z,67.70
2022-10-29T04:28:36.861Z,67.70
2022-10-29T04:30:25.158Z,67.90
2022-10-29T04:33:03.065Z,67.80
2022-10-29T04:35:39.318Z,68.00
2022-10-29T04:38:11.050Z,67.80
2022-10-29T04:40:40.459Z,68.00
2022-10-29T04:43:09.293Z,68.00
2022-10-29T04:45:40.883Z,68.00
2022-10-29T04:48:07.918Z,68.00
2022-10-29T04:50:38.131Z,68.70
2022-10-29T04:53:14.803Z,68.20
2022-10-29T04:55:44.816Z,68.20
2022-10-29T04:58:17.911Z,68.20
2022-10-29T05:00:50.444Z,68.60
2022-10-29T05:03:22.115Z,68.40
2022-10-29T05:05:49.008Z,68.40
2022-10-29T05:08:18.126Z,68.20
2022-10-29T05:10:44.907Z,68.20
2022-10-29T05:13:18.822Z,68.20
2022-10-29T05:15:53.282Z,68.20
2022-10-29T05:18:22.929Z,68.40
2022-10-29T05:21:00.954Z,68.20
2022-10-29T05:23:32.292Z,68.20
2022-10-29T05:26:01.528Z,68.20
2022-10-29T05:28:28.333Z,68.20
2022-10-29T05:30:57.727Z,68.20
2022-10-29T05:33:27.216Z,68.20
2022-10-29T05:35:54.036Z,68.10
2022-10-29T05:38:23.045Z,68.20
2022-10-29T05:40:52.483Z,68.20
2022-10-29T05:43:21.711Z,68.30
2022-10-29T05:45:50.618Z,68.20
2022-10-29T05:48:19.972Z,68.30
2022-10-29T05:50:49.415Z,68.30
2022-10-29T05:53:20.911Z,68.30
2022-10-29T05:55:52.816Z,68.30
2022-10-29T05:58:19.639Z,68.40
2022-10-29T06:00:48.948Z,68.30
2022-10-29T06:03:22.072Z,68.40
2022-10-29T06:05:54.521Z,68.40
2022-10-29T06:08:21.311Z,68.40
2022-10-29T06:10:48.196Z,68.30
2022-10-29T06:13:22.517Z,68.30
2022-10-29T06:15:52.727Z,68.60
2022-10-29T06:18:23.999Z,68.40
2022-10-29T06:20:52.917Z,68.50
2022-10-29T06:23:24.890Z,69.00
2022-10-29T06:26:03.321Z,68.50
2022-10-29T06:28:34.454Z,68.60
2022-10-29T06:31:04.132Z,68.50
2022-10-29T06:33:30.977Z,68.60
2022-10-29T06:36:05.678Z,68.50
2022-10-29T06:38:34.907Z,68.70
2022-10-29T06:41:01.770Z,68.60
2022-10-29T06:43:28.799Z,68.60
2022-10-29T06:45:59.983Z,68.70
2022-10-29T06:48:30.107Z,68.70
2022-10-29T06:51:03.985Z,68.70
2022-10-29T06:53:35.912Z,68.70
2022-10-29T06:56:07.539Z,68.60
2022-10-29T06:58:36.893Z,68.60
2022-10-29T07:01:03.909Z,68.60
2022-10-29T07:03:35.130Z,68.60
2022-10-29T07:06:02.220Z,68.80
2022-10-29T07:08:30.509Z,68.70
2022-10-29T07:11:02.922Z,68.70
2022-10-29T07:13:29.839Z,68.70
2022-10-29T07:15:56.603Z,68.70
2022-10-29T07:18:28.196Z,68.60
2022-10-29T07:20:55.156Z,68.50
2022-10-29T07:23:26.333Z,68.50
2022-10-29T07:25:58.505Z,68.60
2022-10-29T07:28:25.481Z,68.60
2022-10-29T07:31:03.088Z,68.70
2022-10-29T07:33:32.569Z,68.90
2022-10-29T07:36:06.327Z,68.80
2022-10-29T07:38:35.618Z,68.80
2022-10-29T07:41:04.530Z,68.80
2022-10-29T07:43:31.426Z,68.80
2022-10-29T07:46:01.417Z,68.80
2022-10-29T07:48:30.676Z,68.80
2022-10-29T07:51:02.004Z,68.80
2022-10-29T07:53:31.202Z,68.80
2022-10-29T07:56:03.475Z,68.70
2022-10-29T07:58:32.657Z,68.90
2022-10-29T08:01:04.761Z,68.80
2022-10-29T08:03:31.791Z,68.80
2022-10-29T08:06:01.105Z,68.80
2022-10-29T08:08:30.880Z,68.90
2022-10-29T08:11:05.006Z,68.90
2022-10-29T08:13:36.377Z,69.00
2022-10-29T08:16:05.809Z,68.80
2022-10-29T08:18:36.888Z,68.80
2022-10-29T08:21:07.904Z,68.80
2022-10-29T08:23:34.743Z,68.80
2022-10-29T08:26:03.116Z,68.80
2022-10-29T08:28:33.148Z,68.70
2022-10-29T08:31:09.720Z,68.60
2022-10-29T08:33:38.738Z,68.60
2022-10-29T08:36:08.138Z,68.50
2022-10-29T08:38:35.372Z,68.50
2022-10-29T08:41:21.957Z,68.50
2022-10-29T08:44:08.217Z,68.60
2022-10-29T08:47:07.957Z,68.40
2022-10-29T08:49:53.684Z,68.40
2022-10-29T08:52:30.663Z,68.30
2022-10-29T08:55:38.060Z,68.90
2022-10-29T08:58:50.474Z,68.40
2022-10-29T09:01:22.971Z,68.30
2022-10-29T09:03:51.664Z,68.10
2022-10-29T09:06:52.133Z,68.20
2022-10-29T09:09:46.486Z,68.20
2022-10-29T09:13:07.302Z,68.20
2022-10-29T09:15:39.722Z,68.30
2022-10-29T09:18:54.215Z,68.10
2022-10-29T09:21:47.426Z,68.10
2022-10-29T09:24:32.017Z,68.00
2022-10-29T09:27:14.049Z,67.90
2022-10-29T09:30:00.036Z,67.90
2022-10-29T09:32:46.131Z,67.90
2022-10-29T09:35:22.829Z,67.90
2022-10-29T09:38:01.074Z,67.80
2022-10-29T09:40:34.499Z,67.70
2022-10-29T09:43:31.045Z,67.70
2022-10-29T09:46:13.350Z,67.80
2022-10-29T09:49:16.178Z,67.70
2022-10-29T09:51:53.025Z,67.80
2022-10-29T09:54:30.731Z,67.70
2022-10-29T09:57:07.176Z,67.80
2022-10-29T09:59:52.362Z,67.60
2022-10-29T10:02:43.022Z,67.60
2022-10-29T10:05:25.723Z,67.30
2022-10-29T10:08:11.511Z,67.90
2022-10-29T10:10:52.124Z,67.20
2022-10-29T10:13:27.426Z,67.10
2022-10-29T10:16:00.399Z,67.10
2022-10-29T10:21:25.925Z,66.90
2022-10-29T10:23:57.678Z,66.80
2022-10-29T10:26:33.352Z,66.70
2022-10-29T10:29:25.884Z,66.60
2022-10-29T10:31:57.802Z,66.50
2022-10-29T10:34:38.756Z,66.40
2022-10-29T10:37:11.566Z,66.40
2022-10-29T10:39:44.049Z,66.60
2022-10-29T10:42:29.705Z,66.50
2022-10-29T10:45:02.385Z,66.50
2022-10-29T10:47:52.190Z,66.60
2022-10-29T10:50:22.779Z,66.30
2022-10-29T10:52:57.071Z,66.40
2022-10-29T10:55:28.525Z,66.20
2022-10-29T10:58:35.569Z,66.00
2022-10-29T11:01:16.318Z,65.60
2022-10-29T11:04:02.478Z,65.50
2022-10-29T11:06:36.884Z,65.10
2022-10-29T11:09:17.989Z,66.10
2022-10-29T11:12:06.094Z,65.50
2022-10-29T11:14:48.245Z,65.20
2022-10-29T11:17:47.767Z,65.20
2022-10-29T11:20:27.187Z,64.60
2022-10-29T11:23:31.312Z,64.40
2022-10-29T11:26:13.511Z,64.50
2022-10-29T11:29:08.688Z,64.10
2022-10-29T11:32:22.724Z,63.50
2022-10-29T11:34:57.286Z,63.60
2022-10-29T11:38:10.059Z,63.80
2022-10-29T11:41:25.576Z,63.10
2022-10-29T11:43:54.993Z,63.30
2022-10-29T11:46:49.302Z,63.50
2022-10-29T11:50:18.717Z,62.80
2022-10-29T11:53:13.685Z,63.10
2022-10-29T11:56:01.001Z,63.40
2022-10-29T11:59:01.381Z,63.10
2022-10-29T12:02:13.637Z,63.10
2022-10-29T12:05:08.807Z,63.10
2022-10-29T12:07:56.457Z,63.10
2022-10-29T12:11:10.609Z,63.50
2022-10-29T12:13:51.501Z,62.90
2022-10-29T12:16:36.491Z,62.70
2022-10-29T12:19:13.633Z,63.10
2022-10-29T12:21:54.045Z,63.10
2022-10-29T12:24:54.636Z,62.80
2022-10-29T12:27:43.645Z,63.00
2022-10-29T12:30:21.193Z,62.70
2022-10-29T12:33:12.183Z,63.10
2022-10-29T12:35:57.729Z,62.70
2022-10-29T12:38:42.553Z,62.00
2022-10-29T12:41:26.695Z,61.90
2022-10-29T12:44:10.503Z,61.90
2022-10-29T12:47:05.418Z,62.10
2022-10-29T12:50:04.274Z,61.80
2022-10-29T12:53:15.109Z,62.20
2022-10-29T12:55:44.697Z,61.80
2022-10-29T12:58:57.176Z,62.20
2022-10-29T13:01:57.402Z,61.70
2022-10-29T13:05:07.122Z,62.10
2022-10-29T13:07:35.129Z,61.90
2022-10-29T13:10:22.656Z,62.00
2022-10-29T13:13:16.190Z,61.50
2022-10-29T13:15:58.784Z,61.80
2022-10-29T13:18:38.987Z,62.00
2022-10-29T13:21:08.560Z,61.90
2022-10-29T13:23:38.106Z,61.90
2022-10-29T13:26:10.819Z,61.90
2022-10-29T13:28:39.697Z,61.70
2022-10-29T13:31:06.465Z,61.70
2022-10-29T13:33:33.276Z,61.70
2022-10-29T13:36:06.819Z,61.60
2022-10-29T13:39:04.672Z,61.60
2022-10-29T13:41:43.142Z,61.30
2022-10-29T13:44:29.985Z,61.40
2022-10-29T13:47:05.043Z,61.20
2022-10-29T13:49:42.249Z,61.40
2022-10-29T13:52:11.096Z,61.20
2022-10-29T13:54:48.513Z,61.40
2022-10-29T13:57:30.554Z,61.30
2022-10-29T14:00:12.374Z,61.20
2022-10-29T14:02:54.274Z,60.80
2022-10-29T14:05:43.232Z,60.90
2022-10-29T14:08:24.836Z,60.70
2022-10-29T14:10:59.332Z,60.90
2022-10-29T14:13:39.735Z,60.90
2022-10-29T14:16:06.466Z,61.20
2022-10-29T14:18:41.664Z,61.10
2022-10-29T14:21:23.218Z,60.90
2022-10-29T14:24:16.188Z,61.10
2022-10-29T14:26:49.019Z,60.90
2022-10-29T14:29:25.105Z,61.00
2022-10-29T14:32:19.050Z,61.00
2022-10-29T14:34:51.812Z,60.90
2022-10-29T14:37:33.010Z,61.00
2022-10-29T14:40:23.667Z,60.80
2022-10-29T14:42:57.921Z,60.90
2022-10-29T14:45:33.090Z,61.10
2022-10-29T14:48:16.175Z,60.90
2022-10-29T14:50:51.330Z,60.90
2022-10-29T14:53:35.494Z,60.70
2022-10-29T14:56:18.499Z,60.60
2022-10-29T14:58:47.020Z,60.70
2022-10-29T15:01:20.362Z,60.90
2022-10-29T15:03:56.045Z,60.90
2022-10-29T15:06:30.660Z,60.90
2022-10-29T15:09:04.367Z,60.70
2022-10-29T15:11:36.086Z,60.80
2022-10-29T15:16:53.083Z,60.80
2022-10-29T15:19:27.646Z,60.80
2022-10-29T15:21:54.598Z,60.80
2022-10-29T15:24:29.353Z,60.90
2022-10-29T15:27:06.396Z,60.90
2022-10-29T15:29:43.261Z,60.90
2022-10-29T15:32:18.057Z,60.90
2022-10-29T15:35:11.514Z,61.00
2022-10-29T15:37:47.065Z,60.90
2022-10-29T15:40:20.302Z,61.00
2022-10-29T15:42:50.269Z,61.10
2022-10-29T15:45:21.846Z,61.10
2022-10-29T15:47:55.029Z,61.20
2022-10-29T15:50:39.017Z,61.20
2022-10-29T15:53:14.005Z,61.20
2022-10-29T15:55:45.615Z,61.40
2022-10-29T15:58:23.227Z,61.40
2022-10-29T16:00:51.173Z,61.40
2022-10-29T16:03:27.245Z,61.40
2022-10-29T16:06:04.946Z,61.60
2022-10-29T16:08:50.988Z,61.80
2022-10-29T16:11:23.908Z,61.80
2022-10-29T16:13:55.297Z,61.80
2022-10-29T16:16:24.943Z,61.90
2022-10-29T16:18:54.868Z,62.00
2022-10-29T16:21:26.234Z,62.10
2022-10-29T16:23:56.162Z,62.20
2022-10-29T16:26:27.498Z,62.20
2022-10-29T16:28:54.426Z,62.30
2022-10-29T16:31:25.127Z,62.30
2022-10-29T16:33:56.591Z,62.40
2022-10-29T16:36:24.234Z,62.50
2022-10-29T16:38:51.060Z,62.60
2022-10-29T16:41:20.030Z,62.60
2022-10-29T16:43:49.075Z,62.60
2022-10-29T16:46:16.273Z,62.70
2022-10-29T16:48:50.462Z,62.80
2022-10-29T16:51:19.651Z,62.90
2022-10-29T16:53:52.792Z,63.00
2022-10-29T16:56:21.977Z,63.00
2022-10-29T16:59:01.524Z,63.10
2022-10-29T17:01:31.712Z,63.10
2022-10-29T17:03:58.732Z,63.10
2022-10-29T17:06:25.684Z,63.20
2022-10-29T17:08:59.744Z,63.30
2022-10-29T17:11:26.589Z,63.40
2022-10-29T17:13:53.835Z,63.50
2022-10-29T17:16:20.625Z,63.60
2022-10-29T17:18:50.635Z,63.60
2022-10-29T17:21:18.287Z,63.70
2022-10-29T17:23:49.784Z,63.80
2022-10-29T17:26:19.512Z,63.90
2022-10-29T17:28:46.432Z,64.00
2022-10-29T17:31:13.234Z,64.10
2022-10-29T17:33:40.180Z,64.20
2022-10-29T17:36:19.459Z,64.20
2022-10-29T17:38:48.494Z,64.80
2022-10-29T17:41:15.380Z,64.50
2022-10-29T17:43:44.535Z,64.50
2022-10-29T17:46:11.506Z,64.60
2022-10-29T17:48:44.267Z,64.60
2022-10-29T17:51:16.055Z,64.70
2022-10-29T17:53:42.853Z,64.80
2022-10-29T17:56:09.827Z,64.80
2022-10-29T17:58:43.809Z,64.90
2022-10-29T18:01:13.061Z,65.00
2022-10-29T18:03:40.301Z,64.90
2022-10-29T18:06:12.548Z,65.00
2022-10-29T18:08:43.040Z,65.70
2022-10-29T18:11:20.537Z,65.20
2022-10-29T18:13:51.959Z,65.40
2022-10-29T18:16:26.415Z,65.20
2022-10-29T18:19:02.837Z,65.40
2022-10-29T18:21:35.815Z,65.30
2022-10-29T18:24:05.930Z,65.40
2022-10-29T18:26:35.850Z,65.40
2022-10-29T18:29:09.276Z,65.60
2022-10-29T18:31:44.993Z,65.90
2022-10-29T18:34:16.951Z,65.70
2022-10-29T18:36:43.901Z,65.70
2022-10-29T18:39:13.364Z,65.70
2022-10-29T18:41:42.727Z,65.90
2022-10-29T18:44:09.490Z,65.90
2022-10-29T18:46:36.415Z,65.80
2022-10-29T18:49:03.994Z,65.90
2022-10-29T18:51:37.512Z,65.90
2022-10-29T18:54:05.325Z,65.90
2022-10-29T18:56:32.311Z,65.90
2022-10-29T18:59:03.668Z,65.90
2022-10-29T19:01:33.579Z,66.00
2022-10-29T19:04:08.191Z,66.00
2022-10-29T19:06:40.066Z,66.10
2022-10-29T19:09:12.449Z,66.10
2022-10-29T19:11:41.633Z,66.10
2022-10-29T19:14:14.181Z,66.10
2022-10-29T19:16:43.346Z,66.30
2022-10-29T19:19:13.909Z,66.20
2022-10-29T19:21:42.974Z,66.30
2022-10-29T19:24:14.711Z,66.30
2022-10-29T19:26:47.297Z,66.40
2022-10-29T19:29:17.299Z,66.30
2022-10-29T19:31:45.658Z,66.40
2022-10-29T19:34:12.481Z,66.50
2022-10-29T19:36:42.827Z,66.60
2022-10-29T19:39:16.977Z,66.60
2022-10-29T19:41:46.090Z,66.60
2022-10-29T19:44:13.137Z,66.70
2022-10-29T19:46:40.007Z,66.60
2022-10-29T19:49:09.298Z,66.70
2022-10-29T19:51:40.296Z,66.80
2022-10-29T19:54:10.204Z,66.70
2022-10-29T19:56:41.317Z,66.80
2022-10-29T19:59:12.728Z,66.80
2022-10-29T20:01:41.573Z,66.80
2022-10-29T20:04:10.765Z,66.80
2022-10-29T20:06:43.064Z,66.90
2022-10-29T20:09:12.233Z,66.90
2022-10-29T20:11:39.065Z,66.90
2022-10-29T20:14:08.570Z,67.00
2022-10-29T20:16:35.385Z,67.00
2022-10-29T20:19:07.109Z,67.00
2022-10-29T20:21:33.993Z,67.00
2022-10-29T20:24:03.049Z,67.00
2022-10-29T20:26:31.941Z,67.00
2022-10-29T20:28:58.771Z,67.00
2022-10-29T20:31:30.836Z,67.00
2022-10-29T20:34:02.128Z,67.10
2022-10-29T20:36:32.348Z,67.10
2022-10-29T20:38:59.685Z,67.10
2022-10-29T20:41:26.596Z,67.20
2022-10-29T20:43:57.537Z,67.20
2022-10-29T20:46:31.511Z,67.20
2022-10-29T20:48:58.627Z,67.20
2022-10-29T20:51:25.767Z,67.20
2022-10-29T20:53:56.120Z,67.20
2022-10-29T20:56:26.590Z,67.20
2022-10-29T20:58:54.286Z,67.40
2022-10-29T21:01:25.602Z,67.40
2022-10-29T21:03:55.039Z,67.40
2022-10-29T21:06:22.802Z,67.50
2022-10-29T21:08:51.738Z,67.50
2022-10-29T21:11:26.598Z,67.50
2022-10-29T21:13:58.545Z,67.60
2022-10-29T21:16:31.550Z,67.50
2022-10-29T21:19:01.570Z,67.50
2022-10-29T21:21:31.270Z,67.50
2022-10-29T21:24:00.539Z,67.50
2022-10-29T21:26:29.931Z,67.50
2022-10-29T21:28:56.993Z,67.60
2022-10-29T21:31:24.572Z,67.60
2022-10-29T21:33:55.450Z,67.60
2022-10-29T21:36:24.778Z,67.60
2022-10-29T21:38:51.905Z,67.70
2022-10-29T21:41:21.206Z,67.70
2022-10-29T21:43:48.124Z,67.70
2022-10-29T21:46:15.155Z,67.70
2022-10-29T21:48:46.771Z,67.80
2022-10-29T21:51:17.520Z,67.80
2022-10-29T21:53:44.372Z,67.80
2022-10-29T21:56:14.568Z,67.80
2022-10-29T21:58:48.991Z,67.90
2022-10-29T22:01:18.766Z,67.90
2022-10-29T22:03:50.072Z,67.80
2022-10-29T22:06:22.831Z,67.80
2022-10-29T22:08:56.274Z,67.90
2022-10-29T22:11:29.105Z,67.90
2022-10-29T22:14:00.523Z,67.90
2022-10-29T22:16:32.180Z,67.90
2022-10-29T22:19:01.510Z,67.90
2022-10-29T22:21:35.784Z,67.90
2022-10-29T22:24:05.623Z,68.00
2022-10-29T22:26:37.213Z,68.00
2022-10-29T22:29:04.171Z,68.00
2022-10-29T22:31:33.882Z,68.00
2022-10-29T22:34:01.175Z,68.10
2022-10-29T22:36:31.776Z,68.10
2022-10-29T22:39:00.754Z,68.10
2022-10-29T22:41:29.647Z,68.20
2022-10-29T22:43:59.558Z,68.20
2022-10-29T22:46:28.086Z,68.30
2022-10-29T22:48:58.016Z,68.30
2022-10-29T22:51:29.844Z,68.30
2022-10-29T22:53:57.921Z,68.40
2022-10-29T22:56:33.399Z,68.30
2022-10-29T22:59:06.749Z,68.50
2022-10-29T23:01:40.605Z,68.40
2022-10-29T23:04:13.871Z,68.40
2022-10-29T23:06:40.808Z,68.30
2022-10-29T23:09:07.764Z,68.30
2022-10-29T23:11:39.203Z,68.30
2022-10-29T23:14:08.719Z,68.40
2022-10-29T23:16:36.631Z,68.40
2022-10-29T23:19:06.055Z,68.40
2022-10-29T23:21:38.389Z,68.40
2022-10-29T23:24:05.737Z,68.40
2022-10-29T23:26:34.724Z,68.40
2022-10-29T23:29:04.590Z,68.40
2022-10-29T23:31:36.247Z,68.50
2022-10-29T23:34:14.193Z,68.40
2022-10-29T23:36:45.756Z,68.40
2022-10-29T23:39:15.751Z,68.40
2022-10-29T23:41:47.017Z,68.40
2022-10-29T23:44:16.195Z,68.40
2022-10-29T23:46:47.876Z,68.40
2022-10-29T23:49:17.207Z,68.40
2022-10-29T23:51:44.046Z,68.40
2022-10-29T23:54:13.072Z,68.40
2022-10-29T23:56:44.441Z,68.40
2022-10-29T23:59:11.267Z,68.40
